Time;durP1;ratioP1;P1;durP2;ratioP2;P2;SDS_P1;SDS_P2;PMS_P1;PMS_P2;Temp;Humidity;BMP_temperature;BMP_pressure;BME280_temperature;BME280_humidity;BME280_pressure;Samples;Min_cycle;Max_cycle;Signal;HPM_P1;HPM_P2
2021/04/14 00:01:55;;;;;;;24.63;23.23;;;1.70;77.30;;;;;;5134817;27;20190;-76
2021/04/14 00:04:22;;;;;;;24.10;22.67;;;1.90;75.70;;;;;;5134460;27;20202;-75
2021/04/14 00:06:48;;;;;;;23.38;21.73;;;1.90;75.00;;;;;;5134086;27;20203;-75
2021/04/14 00:09:15;;;;;;;23.70;22.30;;;1.80;75.30;;;;;;5134437;27;20214;-76
2021/04/14 00:11:41;;;;;;;23.52;22.23;;;1.80;75.50;;;;;;5134256;27;20194;-76
2021/04/14 00:14:08;;;;;;;24.67;23.00;;;1.80;75.40;;;;;;5133195;27;20225;-76
2021/04/14 00:16:35;;;;;;;23.17;21.80;;;1.80;75.00;;;;;;5133862;27;20228;-75
2021/04/14 00:19:02;;;;;;;23.73;22.23;;;1.70;78.50;;;;;;5133993;27;20212;-75
2021/04/14 00:21:30;;;;;;;22.60;21.20;;;1.70;77.20;;;;;;5134237;27;20241;-76
2021/04/14 00:23:57;;;;;;;23.77;22.40;;;1.60;76.40;;;;;;5134186;27;20194;-75
2021/04/14 00:26:24;;;;;;;24.80;23.25;;;1.70;76.20;;;;;;5133702;27;20229;-76
2021/04/14 00:28:50;;;;;;;24.42;22.90;;;1.70;76.00;;;;;;5134158;27;20308;-76
2021/04/14 00:31:17;;;;;;;24.80;23.15;;;1.70;75.70;;;;;;5133940;27;20343;-76
2021/04/14 00:33:43;;;;;;;23.35;22.05;;;1.70;75.30;;;;;;5134007;27;20280;-76
2021/04/14 00:36:11;;;;;;;24.13;22.63;;;1.70;76.10;;;;;;5133367;27;20197;-76
2021/04/14 00:38:39;;;;;;;25.08;23.35;;;1.60;76.90;;;;;;5133975;27;20723;-76
2021/04/14 00:41:07;;;;;;;24.15;22.55;;;1.50;76.20;;;;;;5133998;27;20304;-76
2021/04/14 00:43:36;;;;;;;24.30;22.75;;;1.60;76.00;;;;;;5133915;27;20567;-76
2021/04/14 00:46:04;;;;;;;26.58;24.73;;;1.60;75.90;;;;;;5133191;27;20281;-76
2021/04/14 00:48:31;;;;;;;24.42;22.55;;;1.40;76.10;;;;;;5133720;27;20285;-76
2021/04/14 00:50:59;;;;;;;25.38;23.73;;;1.40;77.00;;;;;;5133807;27;20209;-76
2021/04/14 00:53:25;;;;;;;23.38;22.00;;;1.50;76.80;;;;;;5133817;27;20193;-76
2021/04/14 00:55:53;;;;;;;23.80;22.40;;;1.40;76.30;;;;;;5133236;27;20221;-76
2021/04/14 00:58:20;;;;;;;24.27;22.85;;;1.40;76.40;;;;;;5133478;27;20667;-76
2021/04/14 01:00:49;;;;;;;23.95;22.35;;;1.40;76.50;;;;;;5133566;27;20217;-76
2021/04/14 01:03:18;;;;;;;24.27;22.98;;;1.40;76.30;;;;;;5133644;27;20276;-76
2021/04/14 01:05:47;;;;;;;23.20;21.90;;;1.40;76.20;;;;;;5132899;27;20284;-76
2021/04/14 01:08:13;;;;;;;24.77;23.15;;;1.30;76.50;;;;;;5133435;27;20209;-76
2021/04/14 01:10:40;;;;;;;23.88;22.58;;;1.30;76.70;;;;;;5133322;27;20538;-76
2021/04/14 01:13:07;;;;;;;23.85;22.30;;;1.20;76.90;;;;;;5132638;27;20292;-76
2021/04/14 01:15:35;;;;;;;23.45;21.95;;;1.30;76.90;;;;;;5132872;27;20671;-76
2021/04/14 01:18:03;;;;;;;24.77;22.95;;;1.20;76.80;;;;;;5133099;27;20223;-76
2021/04/14 01:20:29;;;;;;;23.33;21.92;;;1.20;76.70;;;;;;5133155;27;20214;-76
2021/04/14 01:22:57;;;;;;;23.38;22.13;;;1.30;76.50;;;;;;5133404;27;20659;-76
2021/04/14 01:25:26;;;;;;;24.00;22.38;;;1.40;76.30;;;;;;5132895;27;20227;-76
2021/04/14 01:27:53;;;;;;;24.38;22.92;;;1.30;76.40;;;;;;5132992;27;20253;-76
2021/04/14 01:30:25;;;;;;;23.88;22.25;;;1.40;76.30;;;;;;5133336;27;20691;-76
2021/04/14 01:32:52;;;;;;;23.60;22.20;;;1.30;76.30;;;;;;5133193;28;20612;-76
2021/04/14 01:35:20;;;;;;;23.98;22.58;;;1.30;76.20;;;;;;5133218;28;20730;-79
2021/04/14 01:37:48;;;;;;;23.40;21.98;;;1.30;76.40;;;;;;5132940;28;20189;-76
2021/04/14 01:40:17;;;;;;;22.95;21.50;;;1.10;76.90;;;;;;5132960;27;20304;-75
2021/04/14 01:42:43;;;;;;;22.58;21.40;;;1.10;79.20;;;;;;5133098;28;20197;-75
2021/04/14 01:45:13;;;;;;;23.13;21.77;;;1.10;77.80;;;;;;5132977;27;20350;-75
2021/04/14 01:47:39;;;;;;;23.60;22.25;;;1.00;78.90;;;;;;5132615;28;20197;-75
2021/04/14 01:50:08;;;;;;;23.73;22.38;;;0.90;78.30;;;;;;5132947;28;20244;-75
2021/04/14 01:52:35;;;;;;;24.42;22.88;;;1.00;78.00;;;;;;5132864;27;20659;-76
2021/04/14 01:55:03;;;;;;;23.45;22.00;;;1.10;77.20;;;;;;5132801;28;20190;-76
2021/04/14 01:57:30;;;;;;;23.05;21.75;;;1.10;77.20;;;;;;5132609;28;20197;-75
2021/04/14 01:59:57;;;;;;;22.92;21.63;;;1.10;77.00;;;;;;5132906;28;20301;-75
2021/04/14 02:02:23;;;;;;;23.33;21.90;;;1.00;77.10;;;;;;5132946;28;20236;-75
2021/04/14 02:04:50;;;;;;;23.90;22.60;;;1.00;77.40;;;;;;5132879;27;20196;-75
2021/04/14 02:07:17;;;;;;;23.67;22.38;;;0.90;77.40;;;;;;5132242;28;20202;-76
2021/04/14 02:09:43;;;;;;;23.20;21.70;;;0.90;77.60;;;;;;5132658;28;20278;-76
2021/04/14 02:12:11;;;;;;;23.27;21.88;;;0.90;77.60;;;;;;5132815;28;20233;-76
2021/04/14 02:14:38;;;;;;;23.38;21.88;;;0.90;77.50;;;;;;5132187;27;20208;-76
2021/04/14 02:17:05;;;;;;;23.85;22.45;;;0.90;77.50;;;;;;5132294;28;20197;-76
2021/04/14 02:19:31;;;;;;;23.05;21.85;;;0.90;77.50;;;;;;5132500;28;20201;-76
2021/04/14 02:21:58;;;;;;;24.55;22.75;;;0.90;77.60;;;;;;5132733;27;20194;-76
2021/04/14 02:24:24;;;;;;;23.20;21.70;;;0.90;77.60;;;;;;5132657;28;20576;-76
2021/04/14 02:26:50;;;;;;;43.20;22.85;;;0.80;77.90;;;;;;5132023;28;20258;-76
2021/04/14 02:29:17;;;;;;;22.60;21.13;;;0.70;85.00;;;;;;5132481;28;20221;-76
2021/04/14 02:31:44;;;;;;;22.52;21.10;;;0.70;85.50;;;;;;5132575;28;20773;-76
2021/04/14 02:34:13;;;;;;;23.33;21.65;;;0.70;82.70;;;;;;5132599;27;20193;-77
2021/04/14 02:36:40;;;;;;;24.25;22.70;;;0.70;81.40;;;;;;5134328;27;20291;-77
2021/04/14 02:39:08;;;;;;;22.77;21.48;;;0.70;79.70;;;;;;5136346;27;20221;-76
2021/04/14 02:41:34;;;;;;;23.27;21.90;;;0.70;79.20;;;;;;5136188;27;20214;-76
2021/04/14 02:44:01;;;;;;;22.50;21.00;;;0.80;79.00;;;;;;5136415;27;20237;-76
2021/04/14 02:46:27;;;;;;;23.75;22.35;;;0.70;78.80;;;;;;5135631;27;20233;-75
2021/04/14 02:48:55;;;;;;;23.35;22.05;;;0.70;78.90;;;;;;5136067;27;20706;-76
2021/04/14 02:51:21;;;;;;;24.73;22.50;;;0.70;79.00;;;;;;5135822;27;20304;-76
2021/04/14 02:53:48;;;;;;;24.33;22.83;;;0.50;79.40;;;;;;5135989;27;20281;-75
2021/04/14 02:56:15;;;;;;;22.77;21.55;;;0.60;79.50;;;;;;5135827;27;20277;-76
2021/04/14 02:58:41;;;;;;;23.10;21.73;;;0.70;79.10;;;;;;5135917;27;20206;-76
2021/04/14 03:01:08;;;;;;;23.08;21.77;;;0.70;78.80;;;;;;5135897;27;20253;-76
2021/04/14 03:03:34;;;;;;;22.20;21.00;;;0.70;78.70;;;;;;5135943;27;20194;-75
2021/04/14 03:06:01;;;;;;;23.35;21.80;;;0.60;78.90;;;;;;5135077;27;20603;-77
2021/04/14 03:08:28;;;;;;;24.25;22.85;;;0.60;79.20;;;;;;5135799;27;20552;-76
2021/04/14 03:10:54;;;;;;;24.48;22.98;;;0.50;79.60;;;;;;5135760;27;20220;-76
2021/04/14 03:13:21;;;;;;;23.13;21.65;;;0.50;79.60;;;;;;5134997;27;20304;-75
2021/04/14 03:15:47;;;;;;;22.20;21.00;;;0.50;79.70;;;;;;5134970;27;20282;-76
2021/04/14 03:18:16;;;;;;;25.77;24.27;;;0.50;79.60;;;;;;5135250;27;20734;-75
2021/04/14 03:20:43;;;;;;;21.95;20.75;;;0.50;79.50;;;;;;5135359;27;20220;-76
2021/04/14 03:23:12;;;;;;;22.75;21.45;;;0.60;79.20;;;;;;5135602;27;20273;-76
2021/04/14 03:25:39;;;;;;;22.77;21.25;;;0.60;79.10;;;;;;5135289;27;20229;-76
2021/04/14 03:28:06;;;;;;;24.23;22.75;;;0.60;79.10;;;;;;5135410;27;20657;-76
2021/04/14 03:30:33;;;;;;;23.88;22.52;;;0.50;79.40;;;;;;5135432;27;20235;-76
2021/04/14 03:33:00;;;;;;;22.55;21.33;;;0.50;79.40;;;;;;5135268;27;20305;-76
2021/04/14 03:35:28;;;;;;;22.92;21.63;;;0.50;79.50;;;;;;5135028;27;20285;-75
2021/04/14 03:37:55;;;;;;;23.90;22.40;;;0.40;80.10;;;;;;5135268;27;20579;-76
2021/04/14 03:40:23;;;;;;;23.88;22.27;;;0.40;79.90;;;;;;5135093;27;20706;-75
2021/04/14 03:42:52;;;;;;;23.58;22.15;;;0.30;80.10;;;;;;5135169;27;20289;-76
2021/04/14 03:45:26;;;;;;;24.95;23.45;;;0.40;80.20;;;;;;5134965;27;20682;-77
2021/04/14 03:47:53;;;;;;;24.70;23.30;;;0.40;80.30;;;;;;5133861;27;20196;-76
2021/04/14 03:50:20;;;;;;;24.38;22.85;;;0.50;80.00;;;;;;5134985;27;20217;-76
2021/04/14 03:52:48;;;;;;;23.65;22.38;;;0.40;79.70;;;;;;5134964;27;20342;-76
2021/04/14 03:55:15;;;;;;;25.98;24.38;;;0.40;79.80;;;;;;5135053;27;20212;-76
2021/04/14 03:57:42;;;;;;;23.00;21.70;;;0.40;80.10;;;;;;5134193;27;20194;-76
2021/04/14 04:00:12;;;;;;;23.27;21.98;;;0.30;80.20;;;;;;5134711;27;20296;-77
2021/04/14 04:02:39;;;;;;;23.52;22.23;;;0.30;80.20;;;;;;5134787;27;20301;-78
2021/04/14 04:05:07;;;;;;;23.67;22.20;;;0.30;80.40;;;;;;5134760;27;20193;-76
2021/04/14 04:07:34;;;;;;;24.73;23.23;;;0.30;80.30;;;;;;5133819;27;20317;-76
2021/04/14 04:10:00;;;;;;;25.77;24.30;;;0.20;80.40;;;;;;5134348;27;20225;-76
2021/04/14 04:12:27;;;;;;;23.27;21.85;;;0.30;80.40;;;;;;5134317;27;20196;-76
2021/04/14 04:14:54;;;;;;;28.05;26.20;;;0.30;80.20;;;;;;5133906;27;20615;-76
2021/04/14 04:17:21;;;;;;;24.80;23.20;;;0.30;80.20;;;;;;5133914;27;20197;-76
2021/04/14 04:19:48;;;;;;;24.15;22.55;;;0.30;79.90;;;;;;5134038;27;20214;-76
2021/04/14 04:22:19;;;;;;;23.92;22.13;;;0.30;80.10;;;;;;5134145;27;20198;-75
2021/04/14 04:24:45;;;;;;;23.63;22.25;;;0.30;80.30;;;;;;5134298;27;20194;-75
2021/04/14 04:27:12;;;;;;;26.17;24.58;;;0.30;80.10;;;;;;5133551;27;20198;-77
2021/04/14 04:29:38;;;;;;;23.90;22.42;;;0.20;80.30;;;;;;5134103;27;20648;-75
2021/04/14 04:32:07;;;;;;;24.85;23.23;;;0.20;80.60;;;;;;5134115;27;20194;-75
2021/04/14 04:34:33;;;;;;;25.52;23.83;;;0.10;80.50;;;;;;5134082;27;20253;-76
2021/04/14 04:36:59;;;;;;;24.10;22.80;;;0.10;80.80;;;;;;5133626;27;20285;-75
2021/04/14 04:39:26;;;;;;;23.58;22.17;;;0.20;80.70;;;;;;5133919;27;20730;-75
2021/04/14 04:41:52;;;;;;;22.92;21.52;;;0.10;80.70;;;;;;5133746;27;20658;-75
2021/04/14 04:44:19;;;;;;;23.63;22.20;;;0.10;80.70;;;;;;5133901;27;20376;-75
2021/04/14 04:46:45;;;;;;;24.23;22.73;;;0.20;80.90;;;;;;5133404;27;20198;-75
2021/04/14 04:49:12;;;;;;;22.80;21.23;;;0.20;80.90;;;;;;5133790;27;20260;-75
2021/04/14 04:51:39;;;;;;;23.98;22.58;;;0.30;80.80;;;;;;5133820;27;20228;-75
2021/04/14 04:54:06;;;;;;;25.92;24.42;;;0.30;80.40;;;;;;5133542;27;20200;-75
2021/04/14 04:56:32;;;;;;;24.50;22.83;;;0.30;80.60;;;;;;5133251;27;20197;-75
2021/04/14 04:58:59;;;;;;;24.90;23.40;;;0.30;80.40;;;;;;5133274;27;20277;-75
2021/04/14 05:01:27;;;;;;;25.10;23.55;;;0.30;80.40;;;;;;5133617;27;20782;-75
2021/04/14 05:03:54;;;;;;;27.40;25.90;;;0.30;80.30;;;;;;5133676;27;20229;-75
2021/04/14 05:06:21;;;;;;;24.98;23.48;;;0.30;80.50;;;;;;5132788;27;20198;-76
2021/04/14 05:08:48;;;;;;;23.40;22.10;;;0.30;80.40;;;;;;5133400;27;20277;-75
2021/04/14 05:11:14;;;;;;;28.02;26.15;;;0.40;80.40;;;;;;5133391;27;20733;-75
2021/04/14 05:13:41;;;;;;;24.75;23.30;;;0.50;80.20;;;;;;5132743;27;20315;-75
2021/04/14 05:16:07;;;;;;;25.95;23.85;;;0.50;80.10;;;;;;5132925;27;20198;-76
2021/04/14 05:18:35;;;;;;;25.33;23.83;;;0.50;79.80;;;;;;5133294;27;20202;-75
2021/04/14 05:21:02;;;;;;;24.52;23.13;;;0.60;79.30;;;;;;5133197;27;20260;-75
2021/04/14 05:23:29;;;;;;;25.80;24.25;;;0.70;78.80;;;;;;5133304;27;20229;-75
2021/04/14 05:25:56;;;;;;;25.00;23.50;;;0.80;78.50;;;;;;5132767;27;20284;-76
2021/04/14 05:28:24;;;;;;;23.73;22.27;;;0.80;78.60;;;;;;5133090;27;20280;-76
2021/04/14 05:30:51;;;;;;;25.60;23.95;;;0.90;78.40;;;;;;5133232;27;20214;-76
2021/04/14 05:33:18;;;;;;;24.13;22.73;;;0.90;78.70;;;;;;5133113;28;20197;-76
2021/04/14 05:35:45;;;;;;;23.85;22.27;;;1.00;78.60;;;;;;5132430;28;20282;-76
2021/04/14 05:38:12;;;;;;;24.48;23.00;;;1.10;78.10;;;;;;5133409;28;20197;-76
2021/04/14 05:40:40;;;;;;;25.52;23.80;;;1.10;78.10;;;;;;5132959;28;20245;-77
2021/04/14 05:43:17;;;;;;;25.73;23.63;;;1.20;77.80;;;;;;5133096;28;20280;-76
2021/04/14 05:45:45;;;;;;;26.88;25.35;;;1.20;77.50;;;;;;5132602;28;20201;-75
2021/04/14 05:48:11;;;;;;;26.15;24.42;;;1.30;77.90;;;;;;5132959;28;20204;-76
2021/04/14 05:50:38;;;;;;;29.10;27.27;;;1.30;77.60;;;;;;5132947;28;20713;-76
2021/04/14 05:53:04;;;;;;;28.85;26.67;;;1.40;77.70;;;;;;5132986;28;20281;-76
2021/04/14 05:55:31;;;;;;;27.50;25.67;;;1.50;77.30;;;;;;5132420;28;20280;-75
2021/04/14 05:57:58;;;;;;;25.90;24.10;;;1.70;77.10;;;;;;5133025;28;20189;-76
2021/04/14 06:00:25;;;;;;;27.15;25.55;;;1.90;76.70;;;;;;5132837;27;20301;-76
2021/04/14 06:02:51;;;;;;;27.73;26.02;;;2.00;76.30;;;;;;5132846;27;20226;-76
2021/04/14 06:05:22;;;;;;;28.38;26.48;;;2.10;76.00;;;;;;5132936;28;20648;-76
2021/04/14 06:07:48;;;;;;;26.60;25.05;;;2.20;75.60;;;;;;5132531;28;20210;-76
2021/04/14 06:10:17;;;;;;;24.70;23.20;;;2.40;75.50;;;;;;5132738;27;20218;-75
2021/04/14 06:12:43;;;;;;;26.17;24.42;;;2.60;75.30;;;;;;5136416;27;20728;-75
2021/04/14 06:15:15;;;;;;;25.90;24.35;;;2.70;74.50;;;;;;5136795;27;20745;-76
2021/04/14 06:17:41;;;;;;;27.13;25.48;;;2.90;74.00;;;;;;5136164;27;20606;-76
2021/04/14 06:20:09;;;;;;;28.23;26.33;;;3.00;73.30;;;;;;5136579;27;20215;-76
2021/04/14 06:22:36;;;;;;;27.10;25.40;;;3.10;73.10;;;;;;5136688;27;20283;-76
2021/04/14 06:25:04;;;;;;;28.85;26.80;;;3.20;72.80;;;;;;5136424;27;20653;-76
2021/04/14 06:27:35;;;;;;;30.02;28.23;;;3.30;72.30;;;;;;5136204;27;20193;-76
2021/04/14 06:30:02;;;;;;;29.30;27.30;;;3.50;72.00;;;;;;5136099;27;20243;-76
2021/04/14 06:32:29;;;;;;;27.75;26.05;;;3.60;71.00;;;;;;5136547;27;20285;-76
2021/04/14 06:34:56;;;;;;;28.85;27.05;;;3.90;70.50;;;;;;5136410;27;20208;-76
2021/04/14 06:37:22;;;;;;;28.98;26.85;;;4.10;69.40;;;;;;5135945;27;20182;-76
2021/04/14 06:40:01;;;;;;;28.80;26.80;;;4.20;69.00;;;;;;5136430;27;20249;-76
2021/04/14 06:42:44;;;;;;;27.40;25.80;;;4.30;69.10;;;;;;5136204;27;20202;-76
2021/04/14 06:45:18;;;;;;;28.60;26.55;;;4.50;69.60;;;;;;5136159;27;20190;-76
2021/04/14 06:48:02;;;;;;;30.17;28.10;;;4.60;75.70;;;;;;5135849;27;20222;-76
2021/04/14 06:50:32;;;;;;;31.30;28.98;;;4.70;71.90;;;;;;5135966;27;20698;-76
2021/04/14 06:53:15;;;;;;;32.05;29.85;;;4.80;68.70;;;;;;5136056;27;20290;-76
2021/04/14 06:55:46;;;;;;;32.80;30.20;;;4.80;69.00;;;;;;5135706;27;20212;-76
2021/04/14 06:58:16;;;;;;;31.73;29.60;;;5.00;72.00;;;;;;5136021;27;20341;-76
2021/04/14 07:00:45;;;;;;;30.85;28.58;;;5.20;71.50;;;;;;5135905;27;20297;-76
2021/04/14 07:03:14;;;;;;;34.22;31.75;;;5.20;69.10;;;;;;5135901;27;20284;-76
2021/04/14 07:05:44;;;;;;;32.58;30.17;;;5.30;69.20;;;;;;5135115;27;20197;-76
2021/04/14 07:08:18;;;;;;;31.15;28.55;;;5.40;67.30;;;;;;5135784;27;20194;-76
2021/04/14 07:10:45;;;;;;;31.27;28.85;;;5.50;66.30;;;;;;5135675;27;20221;-76
2021/04/14 07:13:12;;;;;;;33.88;31.42;;;5.50;65.50;;;;;;5135255;27;20292;-76
2021/04/14 07:15:39;;;;;;;31.73;29.48;;;5.60;65.50;;;;;;5134942;27;20414;-77
2021/04/14 07:18:20;;;;;;;34.65;31.48;;;5.60;64.70;;;;;;5135530;27;20233;-76
2021/04/14 07:20:54;;;;;;;31.67;29.38;;;5.40;64.50;;;;;;5135572;27;20249;-76
2021/04/14 07:23:33;;;;;;;34.03;31.73;;;5.40;65.60;;;;;;5135345;27;20275;-76
2021/04/14 07:26:05;;;;;;;34.15;31.85;;;5.30;65.70;;;;;;5134863;27;20205;-76
2021/04/14 07:28:42;;;;;;;34.65;31.27;;;5.20;65.70;;;;;;5135341;27;20288;-76
2021/04/14 07:31:12;;;;;;;32.33;29.77;;;5.10;66.40;;;;;;5134952;27;20728;-78
2021/04/14 07:33:54;;;;;;;36.05;33.42;;;5.30;66.20;;;;;;5135438;27;20281;-75
2021/04/14 07:36:35;;;;;;;33.97;31.13;;;5.40;65.40;;;;;;5134811;27;20194;-75
2021/04/14 07:39:11;;;;;;;34.10;31.35;;;5.30;65.60;;;;;;5135155;27;20522;-76
2021/04/14 07:41:46;;;;;;;31.45;29.20;;;5.20;66.10;;;;;;5135183;27;20220;-75
2021/04/14 07:44:21;;;;;;;30.92;28.83;;;5.10;65.70;;;;;;5135126;27;20227;-76
2021/04/14 07:46:48;;;;;;;32.83;30.27;;;5.10;65.50;;;;;;5134448;27;20650;-78
2021/04/14 07:49:17;;;;;;;31.77;29.33;;;5.00;65.60;;;;;;5134714;27;20214;-75
2021/04/14 07:51:44;;;;;;;33.92;31.63;;;5.20;65.90;;;;;;5135001;27;20662;-75
2021/04/14 07:54:14;;;;;;;30.83;28.73;;;5.40;64.90;;;;;;5134897;27;20199;-75
2021/04/14 07:56:43;;;;;;;33.65;31.35;;;5.40;65.10;;;;;;5134426;27;20198;-75
2021/04/14 07:59:12;;;;;;;31.25;29.15;;;5.60;64.90;;;;;;5134741;27;20200;-76
2021/04/14 08:01:51;;;;;;;31.48;29.27;;;5.70;64.40;;;;;;5134852;27;20717;-76
2021/04/14 08:04:26;;;;;;;31.70;29.48;;;5.80;63.80;;;;;;5134783;27;20280;-76
2021/04/14 08:06:53;;;;;;;30.95;28.75;;;5.80;64.30;;;;;;5134370;27;20202;-76
2021/04/14 08:09:22;;;;;;;29.73;27.88;;;5.70;64.10;;;;;;5134802;27;20221;-75
2021/04/14 08:11:49;;;;;;;28.05;26.25;;;5.80;64.20;;;;;;5134379;27;20205;-75
2021/04/14 08:14:31;;;;;;;28.38;26.50;;;6.00;62.80;;;;;;5133787;27;20205;-76
2021/04/14 08:17:03;;;;;;;30.08;28.17;;;5.90;62.20;;;;;;5133989;27;20205;-75
2021/04/14 08:19:34;;;;;;;29.13;27.13;;;6.00;62.70;;;;;;5134137;27;20243;-75
2021/04/14 08:22:03;;;;;;;28.17;26.30;;;6.10;62.60;;;;;;5134516;27;20559;-75
2021/04/14 08:24:32;;;;;;;29.40;27.60;;;6.20;62.10;;;;;;5134290;27;20309;-75
2021/04/14 08:27:01;;;;;;;30.92;28.25;;;6.30;62.30;;;;;;5133881;27;20262;-75
2021/04/14 08:29:28;;;;;;;33.20;30.90;;;6.30;62.10;;;;;;5134025;27;20314;-76
2021/04/14 08:31:56;;;;;;;28.52;26.65;;;6.10;62.70;;;;;;5134151;27;20277;-75
2021/04/14 08:34:28;;;;;;;28.75;26.90;;;6.30;62.00;;;;;;5133469;27;20196;-75
2021/04/14 08:36:59;;;;;;;28.75;26.55;;;6.30;61.80;;;;;;5133629;27;20592;-75
2021/04/14 08:39:39;;;;;;;28.15;26.35;;;6.50;61.60;;;;;;5134075;27;20190;-75
2021/04/14 08:42:09;;;;;;;27.73;25.83;;;6.70;60.90;;;;;;5134040;27;20201;-76
2021/04/14 08:44:39;;;;;;;28.50;26.60;;;6.70;60.60;;;;;;5134094;27;20198;-75
2021/04/14 08:47:16;;;;;;;27.95;26.25;;;6.70;60.90;;;;;;5133266;27;20204;-76
2021/04/14 08:49:45;;;;;;;30.67;28.75;;;6.90;60.60;;;;;;5133572;27;20222;-75
2021/04/14 08:52:17;;;;;;;27.33;25.63;;;6.60;60.50;;;;;;5133915;27;20201;-76
2021/04/14 08:54:44;;;;;;;27.90;26.20;;;6.80;60.30;;;;;;5133726;27;20751;-75
2021/04/14 08:57:11;;;;;;;28.70;26.73;;;6.90;59.60;;;;;;5133245;27;20356;-75
2021/04/14 08:59:39;;;;;;;28.05;25.95;;;6.90;59.60;;;;;;5133610;27;20360;-75
2021/04/14 09:02:07;;;;;;;29.48;27.42;;;7.00;58.90;;;;;;5133419;27;20193;-74
2021/04/14 09:04:35;;;;;;;28.45;26.20;;;7.00;59.20;;;;;;5133450;27;20196;-74
2021/04/14 09:07:03;;;;;;;28.00;26.23;;;7.00;59.60;;;;;;5133056;27;20201;-75
2021/04/14 09:09:41;;;;;;;29.52;27.63;;;7.10;58.40;;;;;;5133418;27;20304;-75
2021/04/14 09:12:09;;;;;;;28.20;26.33;;;7.10;59.90;;;;;;5133436;27;20729;-75
2021/04/14 09:14:36;;;;;;;28.02;26.27;;;7.30;58.80;;;;;;5132691;27;20202;-75
2021/04/14 09:17:05;;;;;;;27.90;26.17;;;7.50;57.60;;;;;;5132956;27;20227;-76
2021/04/14 09:19:35;;;;;;;26.52;24.95;;;7.60;57.40;;;;;;5133069;27;20199;-75
2021/04/14 09:22:04;;;;;;;28.23;26.42;;;7.80;58.00;;;;;;5133311;27;20288;-76
2021/04/14 09:24:44;;;;;;;28.67;26.45;;;8.00;56.60;;;;;;5133464;27;20283;-76
2021/04/14 09:27:34;;;;;;;27.83;26.02;;;7.90;56.60;;;;;;5132789;27;20285;-76
2021/04/14 09:30:16;;;;;;;27.70;25.80;;;8.10;55.50;;;;;;5133029;27;20255;-75
2021/04/14 09:32:59;;;;;;;29.55;27.63;;;8.30;55.60;;;;;;5133117;27;20201;-76
2021/04/14 09:35:42;;;;;;;28.58;26.58;;;8.40;55.70;;;;;;5133002;28;20283;-75
2021/04/14 09:38:15;;;;;;;27.77;26.00;;;8.40;54.80;;;;;;5133020;28;20327;-75
2021/04/14 09:40:43;;;;;;;32.50;30.05;;;8.50;54.90;;;;;;5132951;27;20286;-76
2021/04/14 09:43:18;;;;;;;28.38;26.40;;;8.60;54.30;;;;;;5133189;28;20338;-76
2021/04/14 09:45:55;;;;;;;30.17;28.13;;;8.80;52.80;;;;;;5133368;27;20694;-76
2021/04/14 09:48:21;;;;;;;27.92;26.25;;;8.80;52.00;;;;;;5137236;27;20193;-76
2021/04/14 09:50:49;;;;;;;27.92;26.23;;;8.80;51.40;;;;;;5137276;27;20638;-76
2021/04/14 09:53:24;;;;;;;28.30;26.65;;;8.60;51.60;;;;;;5137358;27;20284;-76
2021/04/14 09:55:55;;;;;;;28.45;26.65;;;8.90;51.50;;;;;;5136578;27;20193;-76
2021/04/14 09:58:30;;;;;;;27.77;26.15;;;9.20;50.90;;;;;;5137111;27;20209;-76
2021/04/14 10:01:04;;;;;;;27.67;26.08;;;9.60;50.70;;;;;;5137252;27;20209;-76
2021/04/14 10:03:33;;;;;;;30.83;29.00;;;9.80;50.20;;;;;;5137280;27;20272;-76
2021/04/14 10:06:06;;;;;;;27.80;26.00;;;10.00;50.00;;;;;;5136412;27;20190;-75
2021/04/14 10:08:34;;;;;;;26.50;24.65;;;10.00;45.30;;;;;;5136902;27;20204;-75
2021/04/14 10:11:01;;;;;;;25.52;24.02;;;9.70;43.90;;;;;;5136714;27;20267;-76
2021/04/14 10:13:32;;;;;;;26.13;24.73;;;9.40;45.10;;;;;;5136127;27;20202;-76
2021/04/14 10:15:59;;;;;;;26.20;24.63;;;9.10;47.10;;;;;;5136225;27;20221;-75
2021/04/14 10:18:27;;;;;;;26.50;24.90;;;9.30;48.20;;;;;;5136392;27;20310;-75
2021/04/14 10:20:55;;;;;;;26.63;24.83;;;9.40;48.20;;;;;;5136612;27;20300;-75
2021/04/14 10:23:24;;;;;;;28.08;26.35;;;9.70;47.60;;;;;;5136602;27;20617;-75
2021/04/14 10:26:01;;;;;;;27.10;25.40;;;10.10;46.70;;;;;;5136150;27;20225;-76
2021/04/14 10:28:28;;;;;;;26.35;24.85;;;10.10;45.60;;;;;;5136565;27;20567;-76
2021/04/14 10:31:04;;;;;;;30.80;29.20;;;10.00;45.80;;;;;;5136265;27;20221;-75
2021/04/14 10:33:30;;;;;;;26.02;24.50;;;10.20;45.40;;;;;;5136597;27;20193;-76
2021/04/14 10:36:07;;;;;;;25.95;24.17;;;10.20;44.50;;;;;;5135872;27;20226;-76
2021/04/14 10:38:35;;;;;;;31.65;29.10;;;10.00;44.10;;;;;;5136278;27;20293;-76
2021/04/14 10:41:14;;;;;;;27.98;26.27;;;9.90;44.20;;;;;;5136263;27;20216;-76
2021/04/14 10:43:41;;;;;;;27.33;25.50;;;9.90;49.20;;;;;;5136499;27;20693;-76
2021/04/14 10:46:13;;;;;;;28.73;26.73;;;9.90;50.60;;;;;;5135485;27;20946;-76
2021/04/14 10:48:43;;;;;;;26.73;25.02;;;10.00;50.60;;;;;;5136146;27;20547;-76
2021/04/14 10:51:16;;;;;;;26.33;24.75;;;9.40;51.60;;;;;;5136037;27;20687;-76
2021/04/14 10:53:45;;;;;;;26.50;24.80;;;9.60;52.00;;;;;;5136114;27;20198;-76
2021/04/14 10:56:17;;;;;;;25.50;24.10;;;9.50;51.90;;;;;;5134825;27;20197;-75
2021/04/14 10:58:45;;;;;;;26.45;24.75;;;9.00;52.30;;;;;;5135977;27;20202;-76
2021/04/14 11:01:14;;;;;;;26.50;24.90;;;8.90;52.90;;;;;;5135917;27;20301;-76
2021/04/14 11:03:46;;;;;;;26.05;24.45;;;8.70;53.70;;;;;;5136002;27;20222;-76
2021/04/14 11:06:14;;;;;;;26.35;24.83;;;9.00;52.20;;;;;;5135456;27;20194;-76
2021/04/14 11:08:42;;;;;;;26.23;24.73;;;9.20;51.40;;;;;;5135788;27;20226;-76
2021/04/14 11:11:10;;;;;;;26.35;24.75;;;8.70;51.10;;;;;;5135640;27;20232;-75
2021/04/14 11:13:42;;;;;;;27.08;25.17;;;8.70;51.80;;;;;;5135101;27;20202;-76
2021/04/14 11:16:12;;;;;;;26.98;25.02;;;8.80;52.00;;;;;;5135272;27;20202;-76
2021/04/14 11:18:41;;;;;;;26.90;25.17;;;9.20;49.30;;;;;;5135334;27;20318;-75
2021/04/14 11:21:23;;;;;;;27.27;25.58;;;9.10;50.30;;;;;;5135517;27;20217;-76
2021/04/14 11:23:49;;;;;;;26.50;25.00;;;9.10;51.10;;;;;;5135557;27;20281;-76
2021/04/14 11:26:19;;;;;;;27.15;25.33;;;9.20;50.20;;;;;;5135020;27;20696;-76
2021/04/14 11:28:48;;;;;;;26.35;24.75;;;9.50;49.10;;;;;;5135632;27;20247;-76
2021/04/14 11:31:29;;;;;;;27.38;25.75;;;9.40;47.60;;;;;;5136202;27;20225;-76
2021/04/14 11:33:56;;;;;;;27.10;25.35;;;9.00;47.10;;;;;;5135559;27;20194;-76
2021/04/14 11:36:31;;;;;;;27.30;25.55;;;8.90;47.20;;;;;;5136516;27;20246;-77
2021/04/14 11:39:05;;;;;;;27.00;25.50;;;9.10;47.50;;;;;;5136405;27;20197;-75
2021/04/14 11:41:33;;;;;;;25.48;24.08;;;9.30;46.50;;;;;;5135433;27;20217;-76
2021/04/14 11:44:01;;;;;;;27.20;25.70;;;9.40;46.30;;;;;;5135246;27;20280;-76
2021/04/14 11:46:35;;;;;;;27.70;25.75;;;9.40;47.60;;;;;;5134572;27;20277;-76
2021/04/14 11:49:03;;;;;;;28.98;27.02;;;9.50;48.00;;;;;;5135053;27;20241;-76
2021/04/14 11:51:34;;;;;;;26.65;24.95;;;9.70;48.20;;;;;;5135046;27;20218;-76
2021/04/14 11:54:04;;;;;;;27.20;25.58;;;10.00;48.00;;;;;;5135103;27;20346;-77
2021/04/14 11:56:39;;;;;;;27.55;25.80;;;10.30;47.30;;;;;;5134402;27;20194;-77
2021/04/14 11:59:19;;;;;;;26.45;24.90;;;10.30;47.30;;;;;;5135176;27;20230;-77
2021/04/14 12:01:52;;;;;;;27.95;25.98;;;10.20;46.80;;;;;;5135758;27;20320;-77
2021/04/14 12:04:18;;;;;;;25.95;24.45;;;10.00;46.90;;;;;;5135026;27;20200;-76
2021/04/14 12:06:45;;;;;;;27.52;25.80;;;10.20;45.90;;;;;;5134133;27;20280;-76
2021/04/14 12:09:11;;;;;;;26.75;25.20;;;10.20;46.10;;;;;;5133615;27;20281;-77
2021/04/14 12:11:37;;;;;;;26.50;24.77;;;10.30;46.50;;;;;;5134665;27;20301;-76
2021/04/14 12:14:04;;;;;;;26.10;24.50;;;10.70;45.50;;;;;;5133907;27;20566;-76
2021/04/14 12:16:32;;;;;;;26.40;24.63;;;10.60;45.10;;;;;;5133998;27;20284;-76
2021/04/14 12:18:59;;;;;;;27.70;26.00;;;10.60;45.10;;;;;;5134257;27;20204;-76
2021/04/14 12:21:26;;;;;;;26.33;24.83;;;10.30;45.80;;;;;;5134475;27;20314;-76
2021/04/14 12:23:52;;;;;;;25.23;23.83;;;10.10;46.40;;;;;;5134343;27;20190;-75
2021/04/14 12:26:19;;;;;;;28.10;26.60;;;10.10;45.90;;;;;;5133868;27;20198;-77
2021/04/14 12:28:45;;;;;;;26.25;24.63;;;10.20;46.00;;;;;;5134400;27;20332;-77
2021/04/14 12:31:12;;;;;;;26.53;24.93;;;10.40;46.00;;;;;;5134175;27;20228;-76
2021/04/14 12:33:38;;;;;;;26.80;25.20;;;10.70;45.20;;;;;;5135160;27;20590;-77
2021/04/14 12:36:06;;;;;;;27.00;25.40;;;10.90;46.90;;;;;;5133761;27;20534;-76
2021/04/14 12:38:32;;;;;;;26.38;24.77;;;10.90;49.30;;;;;;5133995;27;20439;-76
2021/04/14 12:41:00;;;;;;;26.05;24.45;;;10.50;51.40;;;;;;5133992;27;20315;-76
2021/04/14 12:43:26;;;;;;;27.23;25.63;;;10.10;53.00;;;;;;5133928;27;20250;-77
2021/04/14 12:45:53;;;;;;;27.10;25.40;;;9.90;53.30;;;;;;5133485;27;20205;-76